createdAt,value
2017-03-16T00:01:09.206Z,982.06
2017-03-16T00:02:19.142Z,982.06
2017-03-16T00:03:29.645Z,982.09
2017-03-16T00:04:39.904Z,982.07
2017-03-16T00:05:50.155Z,982.02
2017-03-16T00:07:00.407Z,982.04
2017-03-16T00:08:10.026Z,982.02
2017-03-16T00:09:20.272Z,982.04
2017-03-16T00:10:30.576Z,982.03
2017-03-16T00:11:40.519Z,982.06
2017-03-16T00:12:50.140Z,982.03
2017-03-16T00:14:00.385Z,982.04
2017-03-16T00:15:10.324Z,982.07
2017-03-16T00:16:20.574Z,982.06
2017-03-16T00:17:30.859Z,982.06
2017-03-16T00:18:40.798Z,982.07
2017-03-16T00:19:51.059Z,982.08
2017-03-16T00:21:01.308Z,982.11
2017-03-16T00:22:11.557Z,982.12
2017-03-16T00:23:21.806Z,982.09
2017-03-16T00:24:32.057Z,982.15
2017-03-16T00:25:42.306Z,982.18
2017-03-16T00:26:52.555Z,982.2
2017-03-16T00:28:02.805Z,982.22
2017-03-16T00:29:12.426Z,982.22
2017-03-16T00:30:22.365Z,982.18
2017-03-16T00:31:32.623Z,982.18
2017-03-16T00:32:42.557Z,982.18
2017-03-16T00:33:52.802Z,982.2
2017-03-16T00:35:02.735Z,982.23
2017-03-16T00:36:12.985Z,982.22
2017-03-16T00:37:22.924Z,982.19
2017-03-16T00:38:32.857Z,982.16
2017-03-16T00:39:43.103Z,982.16
2017-03-16T00:40:53.347Z,982.16
2017-03-16T00:42:03.596Z,982.17
2017-03-16T00:43:13.538Z,982.16
2017-03-16T00:44:23.788Z,982.14
2017-03-16T00:45:33.728Z,982.13
2017-03-16T00:46:44.001Z,982.11
2017-03-16T00:47:54.250Z,982.12
2017-03-16T00:49:04.495Z,982.14
2017-03-16T00:50:14.427Z,982.13
2017-03-16T00:51:24.047Z,982.11
2017-03-16T00:52:34.294Z,982.11
2017-03-16T00:53:44.227Z,982.11
2017-03-16T00:54:54.474Z,982.15
2017-03-16T00:56:04.723Z,982.14
2017-03-16T00:57:14.656Z,982.11
2017-03-16T00:58:24.908Z,982.2
2017-03-16T00:59:35.162Z,982.21
2017-03-16T01:00:45.417Z,982.23
2017-03-16T01:01:55.667Z,982.27
2017-03-16T01:03:05.599Z,982.31
2017-03-16T01:04:15.849Z,982.32
2017-03-16T01:05:26.100Z,982.28
2017-03-16T01:06:36.351Z,982.28
2017-03-16T01:07:46.599Z,982.25
2017-03-16T01:08:56.559Z,982.28
2017-03-16T01:10:06.806Z,982.3
2017-03-16T01:11:17.063Z,982.36
2017-03-16T01:12:27.322Z,982.31
2017-03-16T01:13:37.262Z,982.33
2017-03-16T01:14:47.515Z,982.35
2017-03-16T01:15:57.768Z,982.35
2017-03-16T01:17:07.706Z,982.29
2017-03-16T01:18:17.965Z,982.3
2017-03-16T01:19:28.217Z,982.3
2017-03-16T01:20:38.157Z,982.3
2017-03-16T01:21:48.099Z,982.32
2017-03-16T01:22:58.351Z,982.31
2017-03-16T01:24:08.610Z,982.28
2017-03-16T01:25:18.861Z,982.31
2017-03-16T01:26:29.110Z,982.29
2017-03-16T01:27:39.357Z,982.3
2017-03-16T01:28:49.606Z,982.3
2017-03-16T01:29:59.868Z,982.3
2017-03-16T01:31:09.804Z,982.29
2017-03-16T01:32:19.742Z,982.3
2017-03-16T01:33:29.994Z,982.29
2017-03-16T01:34:40.238Z,982.26
2017-03-16T01:35:50.495Z,982.28
2017-03-16T01:37:00.745Z,982.28
2017-03-16T01:38:10.683Z,982.23
2017-03-16T01:39:20.932Z,982.18
2017-03-16T01:40:31.186Z,982.22
2017-03-16T01:41:41.437Z,982.2
2017-03-16T01:42:51.691Z,982.18
2017-03-16T01:44:01.952Z,982.15
2017-03-16T01:45:11.892Z,982.17
2017-03-16T01:46:22.147Z,982.18
2017-03-16T01:47:32.401Z,982.16
2017-03-16T01:48:42.656Z,982.22
2017-03-16T01:49:52.595Z,982.17
2017-03-16T01:51:02.850Z,982.21
2017-03-16T01:52:12.481Z,982.19
2017-03-16T01:53:22.739Z,982.18
2017-03-16T01:54:32.991Z,982.2
2017-03-16T01:55:43.245Z,982.17
2017-03-16T01:56:53.494Z,982.21
2017-03-16T01:58:03.428Z,982.17
2017-03-16T01:59:13.683Z,982.21
2017-03-16T02:00:23.931Z,982.22
2017-03-16T02:01:33.866Z,982.25
2017-03-16T02:02:44.117Z,982.28
2017-03-16T02:03:54.386Z,982.27
2017-03-16T02:05:04.641Z,982.28
2017-03-16T02:06:14.578Z,982.26
2017-03-16T02:07:24.830Z,982.31
2017-03-16T02:08:35.084Z,982.26
2017-03-16T02:09:45.334Z,982.29
2017-03-16T02:10:55.269Z,982.29
2017-03-16T02:12:05.519Z,982.28
2017-03-16T02:13:15.774Z,982.33
2017-03-16T02:14:26.026Z,982.28
2017-03-16T02:15:36.344Z,982.27
2017-03-16T02:16:46.277Z,982.33
2017-03-16T02:17:56.528Z,982.33
2017-03-16T02:19:06.462Z,982.24
2017-03-16T02:20:16.716Z,982.22
2017-03-16T02:21:26.972Z,982.23
2017-03-16T02:22:37.226Z,982.2
2017-03-16T02:23:47.471Z,982.25
2017-03-16T02:24:57.718Z,982.29
2017-03-16T02:26:07.970Z,982.21
2017-03-16T02:27:17.902Z,982.19
2017-03-16T02:28:28.155Z,982.14
2017-03-16T02:29:38.406Z,982.1
2017-03-16T02:30:48.340Z,982.09
2017-03-16T02:31:58.592Z,982.13
2017-03-16T02:33:08.846Z,982.14
2017-03-16T02:34:19.098Z,982.13
2017-03-16T02:35:29.377Z,982.18
2017-03-16T02:36:39.311Z,982.21
2017-03-16T02:37:49.248Z,982.17
2017-03-16T02:38:59.503Z,982.19
2017-03-16T02:40:09.753Z,982.24
2017-03-16T02:41:20.005Z,982.24
2017-03-16T02:42:29.945Z,982.28
2017-03-16T02:43:40.192Z,982.34
2017-03-16T02:44:50.440Z,982.34
2017-03-16T02:46:00.696Z,982.34
2017-03-16T02:47:10.633Z,982.34
2017-03-16T02:48:20.879Z,982.38
2017-03-16T02:49:31.135Z,982.37
2017-03-16T02:50:41.389Z,982.37
2017-03-16T02:51:51.641Z,982.37
2017-03-16T02:53:01.922Z,982.36
2017-03-16T02:54:12.179Z,982.34
2017-03-16T02:55:22.426Z,982.36
2017-03-16T02:56:32.680Z,982.27
2017-03-16T02:57:42.933Z,982.26
2017-03-16T02:58:53.185Z,982.22
2017-03-16T03:00:03.433Z,982.15
2017-03-16T03:01:13.374Z,982.16
2017-03-16T03:02:23.631Z,982.07
2017-03-16T03:03:33.881Z,982.11
2017-03-16T03:04:44.135Z,982.14
2017-03-16T03:05:53.451Z,982.14
2017-03-16T03:07:03.697Z,982.11
2017-03-16T03:08:13.950Z,982.18
2017-03-16T03:09:23.890Z,982.22
2017-03-16T03:10:34.143Z,982.22
2017-03-16T03:11:44.391Z,982.24
2017-03-16T03:12:54.638Z,982.28
2017-03-16T03:14:04.892Z,982.27
2017-03-16T03:15:14.832Z,982.31
2017-03-16T03:16:24.767Z,982.3
2017-03-16T03:17:35.017Z,982.27
2017-03-16T03:18:44.957Z,982.25
2017-03-16T03:19:55.210Z,982.25
2017-03-16T03:21:05.149Z,982.33
2017-03-16T03:22:15.091Z,982.35
2017-03-16T03:23:25.361Z,982.26
2017-03-16T03:24:35.616Z,982.25
2017-03-16T03:25:45.866Z,982.21
2017-03-16T03:26:56.125Z,982.18
2017-03-16T03:28:06.373Z,982.16
2017-03-16T03:29:16.621Z,982.17
2017-03-16T03:30:26.869Z,982.19
2017-03-16T03:31:37.114Z,982.3
2017-03-16T03:32:47.354Z,982.29
2017-03-16T03:33:57.600Z,982.3
2017-03-16T03:35:07.563Z,982.29
2017-03-16T03:36:17.816Z,982.3
2017-03-16T03:37:28.068Z,982.28
2017-03-16T03:38:38.321Z,982.26
2017-03-16T03:39:48.260Z,982.25
2017-03-16T03:40:58.517Z,982.21
2017-03-16T03:42:08.772Z,982.2
2017-03-16T03:43:18.406Z,982.25
2017-03-16T03:44:27.718Z,982.26
2017-03-16T03:45:37.656Z,982.31
2017-03-16T03:46:47.591Z,982.32
2017-03-16T03:47:57.839Z,982.28
2017-03-16T03:49:08.087Z,982.2
2017-03-16T03:50:18.355Z,982.16
2017-03-16T03:51:28.286Z,982.19
2017-03-16T03:52:37.911Z,982.25
2017-03-16T03:53:48.156Z,982.32
2017-03-16T03:54:58.409Z,982.28
2017-03-16T03:56:08.355Z,982.3
2017-03-16T03:57:18.603Z,982.37
2017-03-16T03:58:28.537Z,982.4
2017-03-16T03:59:38.784Z,982.34
2017-03-16T04:00:49.032Z,982.29
2017-03-16T04:01:58.972Z,982.29
2017-03-16T04:03:09.217Z,982.24
2017-03-16T04:04:19.470Z,982.25
2017-03-16T04:05:29.724Z,982.28
2017-03-16T04:06:39.979Z,982.31
2017-03-16T04:07:50.236Z,982.31
2017-03-16T04:09:00.490Z,982.28
2017-03-16T04:10:10.741Z,982.24
2017-03-16T04:11:20.994Z,982.16
2017-03-16T04:12:31.247Z,982.17
2017-03-16T04:13:41.186Z,982.17
2017-03-16T04:14:51.438Z,982.22
2017-03-16T04:16:01.693Z,982.25
2017-03-16T04:17:11.630Z,982.27
2017-03-16T04:18:21.878Z,982.33
2017-03-16T04:19:32.128Z,982.39
2017-03-16T04:20:42.092Z,982.46
2017-03-16T04:21:52.342Z,982.38
2017-03-16T04:23:02.296Z,982.35
2017-03-16T04:24:12.553Z,982.29
2017-03-16T04:25:22.806Z,982.32
2017-03-16T04:26:33.055Z,982.29
2017-03-16T04:27:42.998Z,982.35
2017-03-16T04:28:53.284Z,982.39
2017-03-16T04:30:03.532Z,982.34
2017-03-16T04:31:13.468Z,982.28
2017-03-16T04:32:23.402Z,982.31
2017-03-16T04:33:33.037Z,982.24
2017-03-16T04:34:43.285Z,982.3
2017-03-16T04:35:53.233Z,982.24
2017-03-16T04:37:03.485Z,982.21
2017-03-16T04:38:13.739Z,982.12
2017-03-16T04:39:23.674Z,982.08
2017-03-16T04:40:33.925Z,982.08
2017-03-16T04:41:44.179Z,982.09
2017-03-16T04:42:54.124Z,982.12
2017-03-16T04:44:04.374Z,982.09
2017-03-16T04:45:14.631Z,982.14
2017-03-16T04:46:24.890Z,982.15
2017-03-16T04:47:35.147Z,982.11
2017-03-16T04:48:45.394Z,982.11
2017-03-16T04:49:55.333Z,982.09
2017-03-16T04:51:05.586Z,982.1
2017-03-16T04:52:15.834Z,982.1
2017-03-16T04:53:26.081Z,982.1
2017-03-16T04:54:36.334Z,982.1
2017-03-16T04:55:46.269Z,982.05
2017-03-16T04:56:56.210Z,982.07
2017-03-16T04:58:06.147Z,982
2017-03-16T04:59:16.394Z,981.96
2017-03-16T05:00:26.640Z,981.97
2017-03-16T05:01:36.892Z,981.89
2017-03-16T05:02:46.830Z,981.9
2017-03-16T05:03:57.082Z,981.89
2017-03-16T05:05:06.705Z,981.9
2017-03-16T05:06:16.642Z,981.92
2017-03-16T05:07:26.887Z,981.91
2017-03-16T05:08:36.830Z,981.86
2017-03-16T05:09:47.098Z,981.84
2017-03-16T05:10:57.040Z,981.84
2017-03-16T05:12:07.295Z,981.84
2017-03-16T05:13:17.233Z,981.9
2017-03-16T05:14:27.185Z,981.93
2017-03-16T05:15:37.127Z,981.95
2017-03-16T05:16:47.377Z,981.93
2017-03-16T05:17:57.313Z,981.97
2017-03-16T05:19:07.262Z,982.01
2017-03-16T05:20:17.525Z,981.96
2017-03-16T05:21:27.466Z,982.03
2017-03-16T05:22:37.088Z,982.02
2017-03-16T05:23:47.344Z,982.01
2017-03-16T05:24:57.608Z,982.02
2017-03-16T05:26:07.550Z,981.96
2017-03-16T05:27:16.866Z,981.92
2017-03-16T05:28:27.124Z,981.92
2017-03-16T05:29:37.392Z,981.93
2017-03-16T05:30:47.649Z,981.89
2017-03-16T05:31:57.911Z,981.88
2017-03-16T05:33:08.166Z,981.89
2017-03-16T05:34:18.108Z,981.86
2017-03-16T05:35:28.359Z,981.83
2017-03-16T05:36:38.302Z,981.9
2017-03-16T05:37:48.559Z,981.9
2017-03-16T05:38:58.817Z,981.94
2017-03-16T05:40:09.072Z,981.96
2017-03-16T05:41:19.321Z,981.94
2017-03-16T05:42:29.599Z,981.96
2017-03-16T05:43:39.852Z,981.96
2017-03-16T05:44:50.112Z,981.96
2017-03-16T05:46:00.047Z,981.95
2017-03-16T05:47:10.299Z,981.95
2017-03-16T05:48:20.557Z,981.97
2017-03-16T05:49:30.818Z,981.93
2017-03-16T05:50:40.761Z,981.95
2017-03-16T05:51:50.704Z,981.94
2017-03-16T05:53:00.644Z,981.91
2017-03-16T05:54:10.904Z,981.91
2017-03-16T05:55:21.162Z,981.93
2017-03-16T05:56:31.096Z,981.92
2017-03-16T05:57:41.346Z,981.96
2017-03-16T05:58:51.298Z,981.95
2017-03-16T06:00:01.553Z,981.96
2017-03-16T06:01:11.492Z,981.96
2017-03-16T06:02:21.753Z,981.96
2017-03-16T06:03:32.007Z,982
2017-03-16T06:04:41.950Z,981.98
2017-03-16T06:05:52.206Z,981.98
2017-03-16T06:07:02.459Z,981.93
2017-03-16T06:08:12.711Z,981.95
2017-03-16T06:09:22.972Z,981.96
2017-03-16T06:10:32.605Z,982.02
2017-03-16T06:11:42.858Z,982.08
2017-03-16T06:12:52.794Z,982.1
2017-03-16T06:14:03.054Z,982.11
2017-03-16T06:15:13.004Z,982.12
2017-03-16T06:16:22.937Z,982.09
2017-03-16T06:17:33.197Z,982.1
2017-03-16T06:18:43.457Z,982.09
2017-03-16T06:19:53.722Z,982.04
2017-03-16T06:21:03.677Z,982.04
2017-03-16T06:22:13.932Z,981.95
2017-03-16T06:23:24.185Z,981.93
2017-03-16T06:24:34.456Z,981.92
2017-03-16T06:25:44.704Z,981.85
2017-03-16T06:26:54.651Z,981.9
2017-03-16T06:28:04.904Z,981.86
2017-03-16T06:29:15.172Z,981.85
2017-03-16T06:30:25.126Z,981.9
2017-03-16T06:31:35.073Z,981.87
2017-03-16T06:32:45.324Z,981.88
2017-03-16T06:33:55.594Z,981.85
2017-03-16T06:35:05.535Z,981.82
2017-03-16T06:36:15.790Z,981.79
2017-03-16T06:37:25.731Z,981.78
2017-03-16T06:38:35.358Z,981.75
2017-03-16T06:39:45.620Z,981.77
2017-03-16T06:40:55.560Z,981.78
2017-03-16T06:42:05.820Z,981.8
2017-03-16T06:43:15.763Z,981.75
2017-03-16T06:44:25.708Z,981.74
2017-03-16T06:45:35.654Z,981.79
2017-03-16T06:46:45.905Z,981.76
2017-03-16T06:47:55.859Z,981.76
2017-03-16T06:49:06.116Z,981.73
2017-03-16T06:50:16.381Z,981.73
2017-03-16T06:51:26.631Z,981.77
2017-03-16T06:52:36.889Z,981.76
2017-03-16T06:53:47.145Z,981.71
2017-03-16T06:54:56.779Z,981.68
2017-03-16T06:56:07.037Z,981.63
2017-03-16T06:57:17.322Z,981.6
2017-03-16T06:58:27.258Z,981.57
2017-03-16T06:59:37.527Z,981.53
2017-03-16T07:00:47.779Z,981.56
2017-03-16T07:01:58.047Z,981.62
2017-03-16T07:03:08.296Z,981.63
2017-03-16T07:04:18.405Z,981.65
2017-03-16T07:05:28.671Z,981.59
2017-03-16T07:06:38.935Z,981.53
2017-03-16T07:07:49.188Z,981.5
2017-03-16T07:08:59.453Z,981.51
2017-03-16T07:10:09.797Z,981.48
2017-03-16T07:11:20.073Z,981.51
2017-03-16T07:12:30.016Z,981.56
2017-03-16T07:13:40.274Z,981.54
2017-03-16T07:14:50.533Z,981.48
2017-03-16T07:16:02.489Z,981.51
2017-03-16T07:17:12.746Z,981.54
2017-03-16T07:18:22.686Z,981.53
2017-03-16T07:19:32.949Z,981.5
2017-03-16T07:20:43.208Z,981.46
2017-03-16T07:21:53.461Z,981.43
2017-03-16T07:23:03.732Z,981.41
2017-03-16T07:24:13.993Z,981.4
2017-03-16T07:25:24.255Z,981.4
2017-03-16T07:26:34.509Z,981.36
2017-03-16T07:27:44.768Z,981.37
2017-03-16T07:28:55.030Z,981.36
2017-03-16T07:30:05.294Z,981.31
2017-03-16T07:31:15.547Z,981.25
2017-03-16T07:32:25.487Z,981.16
2017-03-16T07:33:35.424Z,981.15
2017-03-16T07:34:45.375Z,981.12
2017-03-16T07:35:55.309Z,981.11
2017-03-16T07:37:05.247Z,981.1
2017-03-16T07:38:15.205Z,981.13
2017-03-16T07:39:25.468Z,981.1
2017-03-16T07:40:35.102Z,981.09
2017-03-16T07:41:45.351Z,981.07
2017-03-16T07:42:55.604Z,980.99
2017-03-16T07:44:05.550Z,981
2017-03-16T07:45:15.826Z,980.95
2017-03-16T07:46:26.089Z,980.99
2017-03-16T07:47:36.032Z,981.05
2017-03-16T07:48:46.296Z,981.04
2017-03-16T07:49:56.241Z,981.07
2017-03-16T07:51:05.870Z,981.04
2017-03-16T07:52:16.130Z,981.08
2017-03-16T07:53:26.074Z,981.06
2017-03-16T07:54:36.336Z,981.07
2017-03-16T07:55:46.286Z,981.08
2017-03-16T07:56:56.550Z,981.05
2017-03-16T07:58:06.804Z,981.04
2017-03-16T07:59:16.751Z,980.96
2017-03-16T08:00:27.013Z,980.92
2017-03-16T08:01:36.954Z,980.93
2017-03-16T08:02:47.208Z,980.94
2017-03-16T08:03:57.155Z,980.9
2017-03-16T08:05:07.419Z,980.87
2017-03-16T08:06:17.388Z,980.77
2017-03-16T08:07:27.641Z,980.77
2017-03-16T08:08:37.902Z,980.81
2017-03-16T08:09:48.167Z,980.74
2017-03-16T08:10:58.193Z,980.7
2017-03-16T08:12:08.485Z,980.69
2017-03-16T08:13:18.734Z,980.69
2017-03-16T08:14:28.682Z,980.6
2017-03-16T08:15:38.633Z,980.61
2017-03-16T08:16:48.890Z,980.58
2017-03-16T08:17:59.149Z,980.64
2017-03-16T08:19:09.097Z,980.66
2017-03-16T08:20:19.356Z,980.65
2017-03-16T08:21:29.611Z,980.65
2017-03-16T08:22:39.861Z,980.67
2017-03-16T08:23:49.818Z,980.61
2017-03-16T08:25:00.082Z,980.58
2017-03-16T08:26:10.333Z,980.53
2017-03-16T08:27:20.586Z,980.48
2017-03-16T08:28:30.834Z,980.43
2017-03-16T08:29:41.091Z,980.41
2017-03-16T08:30:51.031Z,980.49
2017-03-16T08:32:01.288Z,980.57
2017-03-16T08:33:11.585Z,980.55
2017-03-16T08:34:21.834Z,980.6
2017-03-16T08:35:32.089Z,980.63
2017-03-16T08:36:42.380Z,980.54
2017-03-16T08:37:52.637Z,980.45
2017-03-16T08:39:02.574Z,980.5
2017-03-16T08:40:12.235Z,980.5
2017-03-16T08:41:22.494Z,980.54
2017-03-16T08:42:32.757Z,980.52
2017-03-16T08:43:43.011Z,980.51
2017-03-16T08:44:53.278Z,980.37
2017-03-16T08:46:03.224Z,980.41
2017-03-16T08:47:13.165Z,980.41
2017-03-16T08:48:23.418Z,980.4
2017-03-16T08:49:33.671Z,980.4
2017-03-16T08:50:43.612Z,980.34
2017-03-16T08:51:53.869Z,980.33
2017-03-16T08:53:03.493Z,980.3
2017-03-16T08:54:13.438Z,980.3
2017-03-16T08:55:23.689Z,980.2
2017-03-16T08:56:33.947Z,980.16
2017-03-16T08:57:44.201Z,980.11
2017-03-16T08:58:54.138Z,980.02
2017-03-16T09:00:04.394Z,980.05
2017-03-16T09:01:14.650Z,979.99
2017-03-16T09:02:24.906Z,980
2017-03-16T09:03:35.159Z,979.9
2017-03-16T09:04:45.099Z,979.83
2017-03-16T09:05:55.041Z,979.83
2017-03-16T09:07:04.982Z,979.8
2017-03-16T09:08:14.293Z,979.77
2017-03-16T09:09:24.237Z,979.77
2017-03-16T09:10:34.180Z,979.72
2017-03-16T09:11:44.439Z,979.77
2017-03-16T09:12:54.699Z,979.67
2017-03-16T09:14:04.960Z,979.65
2017-03-16T09:15:14.273Z,979.68
2017-03-16T09:16:24.221Z,979.74
2017-03-16T09:17:33.848Z,979.74
2017-03-16T09:18:43.796Z,979.73
2017-03-16T09:19:53.746Z,979.67
2017-03-16T09:21:04.000Z,979.61
2017-03-16T09:22:14.261Z,979.6
2017-03-16T09:23:24.202Z,979.52
2017-03-16T09:24:34.464Z,979.48
2017-03-16T09:25:44.408Z,979.41
2017-03-16T09:26:54.663Z,979.41
2017-03-16T09:28:04.921Z,979.46
2017-03-16T09:29:15.177Z,979.55
2017-03-16T09:30:25.120Z,979.57
2017-03-16T09:31:35.061Z,979.56
2017-03-16T09:32:45.319Z,979.56
2017-03-16T09:33:55.570Z,979.56
2017-03-16T09:35:05.209Z,979.49
2017-03-16T09:36:15.465Z,979.45
2017-03-16T09:37:25.715Z,979.45
2017-03-16T09:38:35.657Z,979.52
2017-03-16T09:39:45.292Z,979.47
2017-03-16T09:40:55.237Z,979.4
2017-03-16T09:42:05.498Z,979.45
2017-03-16T09:43:15.437Z,979.49
2017-03-16T09:44:25.376Z,979.48
2017-03-16T09:45:35.317Z,979.41
2017-03-16T09:46:45.574Z,979.37
2017-03-16T09:47:55.514Z,979.33
2017-03-16T09:49:05.777Z,979.28
2017-03-16T09:50:16.037Z,979.23
2017-03-16T09:51:26.298Z,979.21
2017-03-16T09:52:36.553Z,979.13
2017-03-16T09:53:46.803Z,979.21
2017-03-16T09:54:56.745Z,979.16
2017-03-16T09:56:06.700Z,979.12
2017-03-16T09:57:16.643Z,979.1
2017-03-16T09:58:26.896Z,979.04
2017-03-16T09:59:36.851Z,979.07
2017-03-16T10:00:47.111Z,978.97
2017-03-16T10:01:57.370Z,979.01
2017-03-16T10:03:07.631Z,978.87
2017-03-16T10:04:17.575Z,978.77
2017-03-16T10:05:27.824Z,978.72
2017-03-16T10:06:37.792Z,978.7
2017-03-16T10:07:47.737Z,978.74
2017-03-16T10:08:56.733Z,978.7
2017-03-16T10:10:06.676Z,978.67
2017-03-16T10:11:16.616Z,978.63
2017-03-16T10:12:26.877Z,978.6
2017-03-16T10:13:37.134Z,978.67
2017-03-16T10:14:47.084Z,978.68
2017-03-16T10:15:57.022Z,978.7
2017-03-16T10:17:06.972Z,978.69
2017-03-16T10:18:16.912Z,978.78
2017-03-16T10:19:26.849Z,978.75
2017-03-16T10:20:37.107Z,978.75
2017-03-16T10:21:47.364Z,978.68
2017-03-16T10:22:57.306Z,978.58
2017-03-16T10:24:07.569Z,978.54
2017-03-16T10:25:17.821Z,978.47
2017-03-16T10:26:28.073Z,978.48
2017-03-16T10:27:38.332Z,978.43
2017-03-16T10:28:48.271Z,978.36
2017-03-16T10:29:58.525Z,978.29
2017-03-16T10:31:08.786Z,978.29
2017-03-16T10:32:18.730Z,978.32
2017-03-16T10:33:28.672Z,978.17
2017-03-16T10:34:38.925Z,978.11
2017-03-16T10:35:48.905Z,978.03
2017-03-16T10:36:58.847Z,978.06
2017-03-16T10:38:08.795Z,978.03
2017-03-16T10:39:18.147Z,977.94
2017-03-16T10:40:28.087Z,977.93
2017-03-16T10:41:37.401Z,977.94
2017-03-16T10:42:47.661Z,977.91
2017-03-16T10:43:57.597Z,977.88
2017-03-16T10:45:07.541Z,977.9
2017-03-16T10:46:17.800Z,977.84
2017-03-16T10:47:27.426Z,977.86
2017-03-16T10:48:37.372Z,977.91
2017-03-16T10:49:47.315Z,977.89
2017-03-16T10:50:57.567Z,977.83
2017-03-16T10:52:07.832Z,977.69
2017-03-16T10:53:18.093Z,977.7
2017-03-16T10:54:28.031Z,977.61
2017-03-16T10:55:38.289Z,977.59
2017-03-16T10:56:47.606Z,977.58
2017-03-16T10:57:57.870Z,977.51
2017-03-16T10:59:08.129Z,977.54
2017-03-16T11:00:18.077Z,977.42
2017-03-16T11:01:28.345Z,977.45
2017-03-16T11:02:38.599Z,977.24
2017-03-16T11:03:48.858Z,977.24
2017-03-16T11:04:59.115Z,977.26
2017-03-16T11:06:08.764Z,977.24
2017-03-16T11:07:18.708Z,977.26
2017-03-16T11:08:28.967Z,977.15
2017-03-16T11:09:38.906Z,977.11
2017-03-16T11:10:48.877Z,976.99
2017-03-16T11:11:58.510Z,976.97
2017-03-16T11:13:08.138Z,976.97
2017-03-16T11:14:18.389Z,976.96
2017-03-16T11:15:28.646Z,977.07
2017-03-16T11:16:38.904Z,977.09
2017-03-16T11:17:48.849Z,977.06
2017-03-16T11:18:58.475Z,977.1
2017-03-16T11:20:08.730Z,977.11
2017-03-16T11:21:18.673Z,977.19
2017-03-16T11:22:28.654Z,977.14
2017-03-16T11:23:38.913Z,977.15
2017-03-16T11:24:48.542Z,977.02
2017-03-16T11:25:58.496Z,977.02
2017-03-16T11:27:08.759Z,976.92
2017-03-16T11:28:18.703Z,977.05
2017-03-16T11:29:28.645Z,977.06
2017-03-16T11:30:38.914Z,976.89
2017-03-16T11:31:49.173Z,976.95
2017-03-16T11:32:58.804Z,976.9
2017-03-16T11:34:08.437Z,976.87
2017-03-16T11:35:18.691Z,976.81
2017-03-16T11:36:28.640Z,976.84
2017-03-16T11:37:38.903Z,976.87
2017-03-16T11:38:48.534Z,976.83
2017-03-16T11:39:58.476Z,976.73
2017-03-16T11:41:08.107Z,976.78
2017-03-16T11:42:18.367Z,976.86
2017-03-16T11:43:28.628Z,976.86
2017-03-16T11:44:38.886Z,976.89
2017-03-16T11:45:48.825Z,976.97
2017-03-16T11:46:59.087Z,976.91
2017-03-16T11:48:09.034Z,976.88
2017-03-16T11:49:18.981Z,976.75
2017-03-16T11:50:28.929Z,976.75
2017-03-16T11:51:38.882Z,976.73
2017-03-16T11:52:48.824Z,976.65
2017-03-16T11:53:59.078Z,976.58
2017-03-16T11:55:09.341Z,976.55
2017-03-16T11:56:18.978Z,976.64
2017-03-16T11:57:28.921Z,976.54
2017-03-16T11:58:38.872Z,976.54
2017-03-16T11:59:48.504Z,976.53
2017-03-16T12:00:58.137Z,976.57
2017-03-16T12:02:08.395Z,976.53
2017-03-16T12:03:18.343Z,976.41
2017-03-16T12:04:28.594Z,976.36
2017-03-16T12:05:38.864Z,976.34
2017-03-16T12:06:48.819Z,976.36
2017-03-16T12:07:58.764Z,976.35
2017-03-16T12:09:09.030Z,976.35
2017-03-16T12:10:19.294Z,976.35
2017-03-16T12:11:29.556Z,976.39
2017-03-16T12:12:39.525Z,976.39
2017-03-16T12:13:49.787Z,976.37
2017-03-16T12:15:00.042Z,976.57
2017-03-16T12:16:10.309Z,976.54
2017-03-16T12:17:20.255Z,976.56
2017-03-16T12:18:30.202Z,976.58
2017-03-16T12:19:40.462Z,976.56
2017-03-16T12:20:50.721Z,976.45
2017-03-16T12:22:00.988Z,976.66
2017-03-16T12:23:11.246Z,976.25
2017-03-16T12:24:21.514Z,976.4
2017-03-16T12:25:31.469Z,976.26
2017-03-16T12:26:41.413Z,975.98
2017-03-16T12:27:51.679Z,975.97
2017-03-16T12:29:01.940Z,976.15
2017-03-16T12:30:12.201Z,976.22
2017-03-16T12:31:22.467Z,976.28
2017-03-16T12:32:32.729Z,976.32
2017-03-16T12:33:42.678Z,976.19
2017-03-16T12:34:52.627Z,976.05
2017-03-16T12:36:02.575Z,975.9
2017-03-16T12:37:12.236Z,975.83
2017-03-16T12:38:22.189Z,975.63
2017-03-16T12:39:32.131Z,975.75
2017-03-16T12:40:42.078Z,975.73
2017-03-16T12:41:52.342Z,975.6
2017-03-16T12:43:02.598Z,975.65
2017-03-16T12:44:12.544Z,975.53
2017-03-16T12:45:21.863Z,975.52
2017-03-16T12:46:31.815Z,975.48
2017-03-16T12:47:42.078Z,975.38
2017-03-16T12:48:52.339Z,975.35
2017-03-16T12:50:02.596Z,975.3
2017-03-16T12:51:12.858Z,975.32
2017-03-16T12:52:23.119Z,975.33
2017-03-16T12:53:33.071Z,975.45
2017-03-16T12:54:43.331Z,975.34
2017-03-16T12:55:53.282Z,975.49
2017-03-16T12:57:03.540Z,975.27
2017-03-16T12:58:13.802Z,975.31
2017-03-16T12:59:23.745Z,975.47
2017-03-16T13:00:34.009Z,975.23
2017-03-16T13:01:44.275Z,975.17
2017-03-16T13:02:54.533Z,975.06
2017-03-16T13:04:04.792Z,975.01
2017-03-16T13:05:15.054Z,974.93
2017-03-16T13:06:24.690Z,974.93
2017-03-16T13:07:34.320Z,974.83
2017-03-16T13:08:44.575Z,975.15
2017-03-16T13:09:54.836Z,974.97
2017-03-16T13:11:04.784Z,975.23
2017-03-16T13:12:14.734Z,975.11
2017-03-16T13:13:24.991Z,974.88
2017-03-16T13:14:35.246Z,975.04
2017-03-16T13:15:45.194Z,974.98
2017-03-16T13:16:55.458Z,974.92
2017-03-16T13:18:05.089Z,974.93
2017-03-16T13:19:15.344Z,974.91
2017-03-16T13:20:24.973Z,974.84
2017-03-16T13:21:35.233Z,974.72
2017-03-16T13:22:45.502Z,974.6
2017-03-16T13:23:55.453Z,974.51
2017-03-16T13:25:05.086Z,974.51
2017-03-16T13:26:15.032Z,974.56
2017-03-16T13:27:24.979Z,974.61
2017-03-16T13:28:35.236Z,974.57
2017-03-16T13:29:45.493Z,974.51
2017-03-16T13:30:55.753Z,974.53
2017-03-16T13:32:06.016Z,974.5
2017-03-16T13:33:15.650Z,974.57
2017-03-16T13:34:25.906Z,974.56
2017-03-16T13:35:36.171Z,974.43
2017-03-16T13:36:46.433Z,974.4
2017-03-16T13:37:56.696Z,974.28
2017-03-16T13:39:06.958Z,974.21
2017-03-16T13:40:17.220Z,974.22
2017-03-16T13:41:27.640Z,974.25
2017-03-16T13:42:37.911Z,974.17
2017-03-16T13:43:47.894Z,974.15
2017-03-16T13:44:58.154Z,974.13
2017-03-16T13:46:08.417Z,974.06
2017-03-16T13:47:18.364Z,974.09
2017-03-16T13:48:27.999Z,974.05
2017-03-16T13:49:38.257Z,974.06
2017-03-16T13:50:48.550Z,973.99
2017-03-16T13:51:58.497Z,973.95
2017-03-16T13:53:09.818Z,973.81
2017-03-16T13:54:20.084Z,973.76
2017-03-16T13:55:30.035Z,973.81
2017-03-16T13:56:40.300Z,973.76
2017-03-16T13:57:50.593Z,973.76
2017-03-16T13:59:00.542Z,973.72
2017-03-16T14:00:10.803Z,973.7
2017-03-16T14:01:21.063Z,973.69
2017-03-16T14:02:31.321Z,973.74
2017-03-16T14:03:41.586Z,973.89
2017-03-16T14:04:51.542Z,973.8
2017-03-16T14:06:01.492Z,973.79
2017-03-16T14:07:11.438Z,973.67
2017-03-16T14:08:21.706Z,973.58
2017-03-16T14:09:31.970Z,973.58
2017-03-16T14:10:42.235Z,973.5
2017-03-16T14:11:52.502Z,973.49
2017-03-16T14:13:02.765Z,973.32
2017-03-16T14:14:12.712Z,973.24
2017-03-16T14:15:22.977Z,973.48
2017-03-16T14:16:32.937Z,973.47
2017-03-16T14:17:43.199Z,973.55
2017-03-16T14:18:53.461Z,973.65
2017-03-16T14:20:03.727Z,973.57
2017-03-16T14:21:13.701Z,973.51
2017-03-16T14:22:23.975Z,973.37
2017-03-16T14:23:34.238Z,973.31
2017-03-16T14:24:44.190Z,973.25
2017-03-16T14:25:54.134Z,973.18
2017-03-16T14:27:04.083Z,972.92
2017-03-16T14:28:14.064Z,972.75
2017-03-16T14:29:24.011Z,972.68
2017-03-16T14:30:34.272Z,972.92
2017-03-16T14:31:44.536Z,972.9
2017-03-16T14:32:54.798Z,973.04
2017-03-16T14:34:05.057Z,972.97
2017-03-16T14:35:15.324Z,973.02
2017-03-16T14:36:25.588Z,973.23
2017-03-16T14:37:35.848Z,973.26
2017-03-16T14:38:46.108Z,973.09